sensor_id;sensor_type;location;lat;lon;timestamp;P1;durP1;ratioP1;P2;durP2;ratioP2
36303;SDS011;22335;49.800;8.596;2023-06-14T00:01:33;7.10;;;6.53;;
36303;SDS011;22335;49.800;8.596;2023-06-14T00:08:17;7.50;;;6.70;;
36303;SDS011;22335;49.800;8.596;2023-06-14T00:15:02;7.32;;;6.65;;
36303;SDS011;22335;49.800;8.596;2023-06-14T00:21:49;7.70;;;6.90;;
36303;SDS011;22335;49.800;8.596;2023-06-14T00:28:33;8.20;;;7.00;;
36303;SDS011;22335;49.800;8.596;2023-06-14T00:35:16;8.80;;;7.00;;
36303;SDS011;22335;49.800;8.596;2023-06-14T00:42:01;7.32;;;6.72;;
36303;SDS011;22335;49.800;8.596;2023-06-14T00:48:46;8.95;;;6.85;;
36303;SDS011;22335;49.800;8.596;2023-06-14T00:55:31;12.45;;;11.20;;
36303;SDS011;22335;49.800;8.596;2023-06-14T01:02:16;11.27;;;8.15;;
36303;SDS011;22335;49.800;8.596;2023-06-14T01:09:05;8.88;;;8.07;;
36303;SDS011;22335;49.800;8.596;2023-06-14T01:15:56;7.63;;;6.82;;
36303;SDS011;22335;49.800;8.596;2023-06-14T01:22:47;8.95;;;8.05;;
36303;SDS011;22335;49.800;8.596;2023-06-14T01:29:34;7.67;;;6.97;;
36303;SDS011;22335;49.800;8.596;2023-06-14T01:36:18;8.45;;;7.25;;
36303;SDS011;22335;49.800;8.596;2023-06-14T01:43:04;10.07;;;7.80;;
36303;SDS011;22335;49.800;8.596;2023-06-14T01:49:50;9.15;;;7.80;;
36303;SDS011;22335;49.800;8.596;2023-06-14T01:56:34;7.68;;;7.07;;
36303;SDS011;22335;49.800;8.596;2023-06-14T02:03:18;8.52;;;7.70;;
36303;SDS011;22335;49.800;8.596;2023-06-14T02:10:02;8.10;;;7.40;;
36303;SDS011;22335;49.800;8.596;2023-06-14T02:16:47;8.53;;;7.73;;
36303;SDS011;22335;49.800;8.596;2023-06-14T02:23:32;7.70;;;7.10;;
36303;SDS011;22335;49.800;8.596;2023-06-14T02:30:16;10.17;;;7.87;;
36303;SDS011;22335;49.800;8.596;2023-06-14T02:37:01;8.77;;;7.97;;
36303;SDS011;22335;49.800;8.596;2023-06-14T02:43:46;8.70;;;7.93;;
36303;SDS011;22335;49.800;8.596;2023-06-14T03:05:33;8.20;;;7.60;;
36303;SDS011;22335;49.800;8.596;2023-06-14T03:12:17;9.33;;;8.00;;
36303;SDS011;22335;49.800;8.596;2023-06-14T03:19:02;8.43;;;7.57;;
36303;SDS011;22335;49.800;8.596;2023-06-14T03:25:48;8.60;;;7.80;;
36303;SDS011;22335;49.800;8.596;2023-06-14T03:32:32;8.70;;;7.50;;
36303;SDS011;22335;49.800;8.596;2023-06-14T03:39:17;8.55;;;7.75;;
36303;SDS011;22335;49.800;8.596;2023-06-14T03:46:02;9.05;;;7.55;;
36303;SDS011;22335;49.800;8.596;2023-06-14T03:52:48;11.82;;;7.70;;
36303;SDS011;22335;49.800;8.596;2023-06-14T03:59:33;8.80;;;7.80;;
36303;SDS011;22335;49.800;8.596;2023-06-14T04:06:19;12.00;;;7.35;;
36303;SDS011;22335;49.800;8.596;2023-06-14T04:13:03;9.10;;;8.23;;
36303;SDS011;22335;49.800;8.596;2023-06-14T04:19:49;8.90;;;7.97;;
36303;SDS011;22335;49.800;8.596;2023-06-14T04:26:34;9.07;;;7.57;;
36303;SDS011;22335;49.800;8.596;2023-06-14T04:33:17;7.93;;;7.22;;
36303;SDS011;22335;49.800;8.596;2023-06-14T04:40:01;15.77;;;7.60;;
36303;SDS011;22335;49.800;8.596;2023-06-14T04:46:51;8.45;;;7.65;;
36303;SDS011;22335;49.800;8.596;2023-06-14T04:53:37;8.00;;;7.20;;
36303;SDS011;22335;49.800;8.596;2023-06-14T05:00:21;8.63;;;7.78;;
36303;SDS011;22335;49.800;8.596;2023-06-14T05:07:07;8.32;;;7.53;;
36303;SDS011;22335;49.800;8.596;2023-06-14T05:20:36;7.88;;;7.07;;
36303;SDS011;22335;49.800;8.596;2023-06-14T05:27:20;7.90;;;7.22;;
36303;SDS011;22335;49.800;8.596;2023-06-14T05:34:06;8.98;;;7.40;;
36303;SDS011;22335;49.800;8.596;2023-06-14T05:40:49;13.05;;;7.80;;
36303;SDS011;22335;49.800;8.596;2023-06-14T05:47:34;9.35;;;7.80;;
36303;SDS011;22335;49.800;8.596;2023-06-14T05:54:17;10.32;;;7.45;;
36303;SDS011;22335;49.800;8.596;2023-06-14T06:01:01;8.13;;;7.40;;
36303;SDS011;22335;49.800;8.596;2023-06-14T06:07:46;9.00;;;7.60;;
36303;SDS011;22335;49.800;8.596;2023-06-14T06:14:29;8.68;;;7.50;;
36303;SDS011;22335;49.800;8.596;2023-06-14T06:21:13;7.65;;;6.95;;
36303;SDS011;22335;49.800;8.596;2023-06-14T06:27:59;8.63;;;7.27;;
36303;SDS011;22335;49.800;8.596;2023-06-14T06:34:43;8.98;;;7.25;;
36303;SDS011;22335;49.800;8.596;2023-06-14T06:41:26;7.55;;;6.70;;
36303;SDS011;22335;49.800;8.596;2023-06-14T06:48:11;7.47;;;6.75;;
36303;SDS011;22335;49.800;8.596;2023-06-14T06:54:55;7.60;;;6.90;;
36303;SDS011;22335;49.800;8.596;2023-06-14T07:01:39;7.82;;;7.00;;
36303;SDS011;22335;49.800;8.596;2023-06-14T07:08:23;8.95;;;6.82;;
36303;SDS011;22335;49.800;8.596;2023-06-14T07:15:07;8.13;;;6.55;;
36303;SDS011;22335;49.800;8.596;2023-06-14T07:21:52;11.13;;;6.83;;
36303;SDS011;22335;49.800;8.596;2023-06-14T07:28:37;7.22;;;6.40;;
36303;SDS011;22335;49.800;8.596;2023-06-14T07:35:21;6.33;;;5.90;;
36303;SDS011;22335;49.800;8.596;2023-06-14T07:42:05;7.68;;;6.50;;
36303;SDS011;22335;49.800;8.596;2023-06-14T07:48:50;8.07;;;6.30;;
36303;SDS011;22335;49.800;8.596;2023-06-14T07:55:34;7.10;;;5.83;;
36303;SDS011;22335;49.800;8.596;2023-06-14T08:02:26;6.25;;;5.72;;
36303;SDS011;22335;49.800;8.596;2023-06-14T08:09:10;7.35;;;5.90;;
36303;SDS011;22335;49.800;8.596;2023-06-14T08:15:55;7.03;;;5.72;;
36303;SDS011;22335;49.800;8.596;2023-06-14T08:22:40;8.23;;;5.65;;
36303;SDS011;22335;49.800;8.596;2023-06-14T08:29:25;5.60;;;5.18;;
36303;SDS011;22335;49.800;8.596;2023-06-14T08:36:10;5.75;;;5.20;;
36303;SDS011;22335;49.800;8.596;2023-06-14T08:42:54;5.75;;;4.60;;
36303;SDS011;22335;49.800;8.596;2023-06-14T08:49:39;4.80;;;4.45;;
36303;SDS011;22335;49.800;8.596;2023-06-14T08:56:26;6.32;;;4.50;;
36303;SDS011;22335;49.800;8.596;2023-06-14T09:03:11;5.40;;;4.90;;
36303;SDS011;22335;49.800;8.596;2023-06-14T09:10:06;4.40;;;4.10;;
36303;SDS011;22335;49.800;8.596;2023-06-14T09:16:52;4.82;;;4.30;;
36303;SDS011;22335;49.800;8.596;2023-06-14T09:23:36;6.22;;;4.07;;
36303;SDS011;22335;49.800;8.596;2023-06-14T09:30:21;4.63;;;4.17;;
36303;SDS011;22335;49.800;8.596;2023-06-14T09:37:05;5.70;;;4.17;;
36303;SDS011;22335;49.800;8.596;2023-06-14T09:43:48;4.20;;;3.80;;
36303;SDS011;22335;49.800;8.596;2023-06-14T09:50:34;4.50;;;4.10;;
36303;SDS011;22335;49.800;8.596;2023-06-14T10:04:06;3.83;;;3.40;;
36303;SDS011;22335;49.800;8.596;2023-06-14T10:10:53;3.95;;;3.17;;
36303;SDS011;22335;49.800;8.596;2023-06-14T10:17:39;3.55;;;3.28;;
36303;SDS011;22335;49.800;8.596;2023-06-14T10:24:32;3.72;;;3.42;;
36303;SDS011;22335;49.800;8.596;2023-06-14T10:31:19;4.00;;;3.60;;
36303;SDS011;22335;49.800;8.596;2023-06-14T10:38:06;4.68;;;3.58;;
36303;SDS011;22335;49.800;8.596;2023-06-14T10:44:50;5.43;;;3.25;;
36303;SDS011;22335;49.800;8.596;2023-06-14T10:51:39;3.72;;;3.42;;
36303;SDS011;22335;49.800;8.596;2023-06-14T10:58:27;3.95;;;3.63;;
36303;SDS011;22335;49.800;8.596;2023-06-14T11:05:11;3.88;;;3.65;;
36303;SDS011;22335;49.800;8.596;2023-06-14T11:12:00;4.07;;;3.67;;
36303;SDS011;22335;49.800;8.596;2023-06-14T11:18:45;2.28;;;2.08;;
36303;SDS011;22335;49.800;8.596;2023-06-14T11:32:15;3.95;;;3.65;;
36303;SDS011;22335;49.800;8.596;2023-06-14T11:38:58;4.53;;;4.10;;
36303;SDS011;22335;49.800;8.596;2023-06-14T11:45:42;4.70;;;4.40;;
36303;SDS011;22335;49.800;8.596;2023-06-14T11:52:30;3.83;;;3.50;;
36303;SDS011;22335;49.800;8.596;2023-06-14T11:59:14;4.05;;;3.70;;
36303;SDS011;22335;49.800;8.596;2023-06-14T12:06:04;5.80;;;3.90;;
36303;SDS011;22335;49.800;8.596;2023-06-14T12:12:50;4.22;;;3.83;;
36303;SDS011;22335;49.800;8.596;2023-06-14T12:19:41;6.70;;;3.90;;
36303;SDS011;22335;49.800;8.596;2023-06-14T12:26:26;4.22;;;3.92;;
36303;SDS011;22335;49.800;8.596;2023-06-14T12:33:11;5.47;;;4.50;;
36303;SDS011;22335;49.800;8.596;2023-06-14T12:39:54;4.32;;;3.92;;
36303;SDS011;22335;49.800;8.596;2023-06-14T12:46:38;4.57;;;4.20;;
36303;SDS011;22335;49.800;8.596;2023-06-14T12:53:24;4.40;;;4.10;;
36303;SDS011;22335;49.800;8.596;2023-06-14T13:00:08;4.22;;;3.92;;
36303;SDS011;22335;49.800;8.596;2023-06-14T13:06:54;4.60;;;4.30;;
36303;SDS011;22335;49.800;8.596;2023-06-14T13:13:38;4.90;;;4.43;;
36303;SDS011;22335;49.800;8.596;2023-06-14T13:20:22;4.93;;;4.45;;
36303;SDS011;22335;49.800;8.596;2023-06-14T13:27:06;4.85;;;4.47;;
36303;SDS011;22335;49.800;8.596;2023-06-14T13:33:51;4.60;;;4.25;;
36303;SDS011;22335;49.800;8.596;2023-06-14T13:40:34;5.20;;;4.75;;
36303;SDS011;22335;49.800;8.596;2023-06-14T13:47:19;4.67;;;4.27;;
36303;SDS011;22335;49.800;8.596;2023-06-14T13:54:21;4.60;;;4.20;;
36303;SDS011;22335;49.800;8.596;2023-06-14T14:07:49;6.15;;;4.30;;
36303;SDS011;22335;49.800;8.596;2023-06-14T14:14:35;4.50;;;4.10;;
36303;SDS011;22335;49.800;8.596;2023-06-14T14:21:18;4.57;;;4.28;;
36303;SDS011;22335;49.800;8.596;2023-06-14T14:28:02;5.00;;;4.50;;
36303;SDS011;22335;49.800;8.596;2023-06-14T14:35:05;4.80;;;4.40;;
36303;SDS011;22335;49.800;8.596;2023-06-14T14:41:49;4.70;;;4.30;;
36303;SDS011;22335;49.800;8.596;2023-06-14T14:48:33;5.40;;;4.40;;
36303;SDS011;22335;49.800;8.596;2023-06-14T14:55:18;5.65;;;4.32;;
36303;SDS011;22335;49.800;8.596;2023-06-14T15:02:01;4.68;;;4.28;;
36303;SDS011;22335;49.800;8.596;2023-06-14T15:08:45;4.60;;;4.17;;
36303;SDS011;22335;49.800;8.596;2023-06-14T15:15:30;5.00;;;4.43;;
36303;SDS011;22335;49.800;8.596;2023-06-14T15:22:14;4.63;;;4.20;;
36303;SDS011;22335;49.800;8.596;2023-06-14T15:28:57;4.20;;;3.90;;
36303;SDS011;22335;49.800;8.596;2023-06-14T15:35:42;4.82;;;4.38;;
36303;SDS011;22335;49.800;8.596;2023-06-14T15:42:26;4.68;;;4.28;;
36303;SDS011;22335;49.800;8.596;2023-06-14T15:49:10;4.90;;;3.70;;
36303;SDS011;22335;49.800;8.596;2023-06-14T15:55:56;4.00;;;3.65;;
36303;SDS011;22335;49.800;8.596;2023-06-14T16:02:40;6.22;;;4.18;;
36303;SDS011;22335;49.800;8.596;2023-06-14T16:09:24;3.65;;;3.35;;
36303;SDS011;22335;49.800;8.596;2023-06-14T16:16:09;4.97;;;3.90;;
36303;SDS011;22335;49.800;8.596;2023-06-14T16:29:35;4.43;;;3.92;;
36303;SDS011;22335;49.800;8.596;2023-06-14T16:36:20;4.20;;;3.80;;
36303;SDS011;22335;49.800;8.596;2023-06-14T16:43:05;3.90;;;3.53;;
36303;SDS011;22335;49.800;8.596;2023-06-14T16:49:48;3.78;;;3.47;;
36303;SDS011;22335;49.800;8.596;2023-06-14T16:56:33;3.80;;;3.47;;
36303;SDS011;22335;49.800;8.596;2023-06-14T17:03:17;3.80;;;3.55;;
36303;SDS011;22335;49.800;8.596;2023-06-14T17:10:00;5.10;;;3.50;;
36303;SDS011;22335;49.800;8.596;2023-06-14T17:16:45;4.18;;;3.88;;
36303;SDS011;22335;49.800;8.596;2023-06-14T17:23:28;3.88;;;3.58;;
36303;SDS011;22335;49.800;8.596;2023-06-14T17:30:12;3.38;;;3.17;;
36303;SDS011;22335;49.800;8.596;2023-06-14T17:36:59;3.53;;;3.33;;
36303;SDS011;22335;49.800;8.596;2023-06-14T17:43:42;6.40;;;4.18;;
36303;SDS011;22335;49.800;8.596;2023-06-14T17:50:26;4.20;;;3.78;;
36303;SDS011;22335;49.800;8.596;2023-06-14T17:57:10;4.00;;;3.65;;
36303;SDS011;22335;49.800;8.596;2023-06-14T18:03:54;4.07;;;3.78;;
36303;SDS011;22335;49.800;8.596;2023-06-14T18:10:37;4.68;;;3.30;;
36303;SDS011;22335;49.800;8.596;2023-06-14T18:17:23;3.95;;;3.60;;
36303;SDS011;22335;49.800;8.596;2023-06-14T18:24:07;4.65;;;3.80;;
36303;SDS011;22335;49.800;8.596;2023-06-14T18:30:51;3.83;;;3.53;;
36303;SDS011;22335;49.800;8.596;2023-06-14T18:37:36;4.18;;;3.80;;
36303;SDS011;22335;49.800;8.596;2023-06-14T18:44:19;3.80;;;3.53;;
36303;SDS011;22335;49.800;8.596;2023-06-14T18:51:03;4.25;;;3.85;;
36303;SDS011;22335;49.800;8.596;2023-06-14T18:57:48;3.92;;;3.63;;
36303;SDS011;22335;49.800;8.596;2023-06-14T19:04:31;4.22;;;3.80;;
36303;SDS011;22335;49.800;8.596;2023-06-14T19:11:14;4.70;;;4.00;;
36303;SDS011;22335;49.800;8.596;2023-06-14T19:18:01;5.55;;;4.10;;
36303;SDS011;22335;49.800;8.596;2023-06-14T19:24:46;4.90;;;4.00;;
36303;SDS011;22335;49.800;8.596;2023-06-14T19:31:30;5.32;;;4.13;;
36303;SDS011;22335;49.800;8.596;2023-06-14T19:38:15;4.40;;;4.10;;
36303;SDS011;22335;49.800;8.596;2023-06-14T19:44:59;9.82;;;4.65;;
36303;SDS011;22335;49.800;8.596;2023-06-14T19:51:43;4.70;;;4.20;;
36303;SDS011;22335;49.800;8.596;2023-06-14T19:58:28;4.47;;;4.10;;
36303;SDS011;22335;49.800;8.596;2023-06-14T20:05:11;4.50;;;4.20;;
36303;SDS011;22335;49.800;8.596;2023-06-14T20:11:54;4.72;;;4.32;;
36303;SDS011;22335;49.800;8.596;2023-06-14T20:18:39;4.82;;;4.20;;
36303;SDS011;22335;49.800;8.596;2023-06-14T20:25:23;6.72;;;4.55;;
36303;SDS011;22335;49.800;8.596;2023-06-14T20:32:07;5.07;;;4.57;;
36303;SDS011;22335;49.800;8.596;2023-06-14T20:38:52;5.22;;;4.82;;
36303;SDS011;22335;49.800;8.596;2023-06-14T20:45:36;5.00;;;4.60;;
36303;SDS011;22335;49.800;8.596;2023-06-14T20:52:20;5.07;;;4.67;;
36303;SDS011;22335;49.800;8.596;2023-06-14T20:59:07;4.82;;;4.40;;
36303;SDS011;22335;49.800;8.596;2023-06-14T21:05:50;5.43;;;4.73;;
36303;SDS011;22335;49.800;8.596;2023-06-14T21:12:34;5.30;;;4.80;;
36303;SDS011;22335;49.800;8.596;2023-06-14T21:19:19;4.75;;;4.45;;
36303;SDS011;22335;49.800;8.596;2023-06-14T21:26:02;5.43;;;5.03;;
36303;SDS011;22335;49.800;8.596;2023-06-14T21:32:46;10.23;;;4.80;;
36303;SDS011;22335;49.800;8.596;2023-06-14T21:39:30;5.38;;;4.88;;
36303;SDS011;22335;49.800;8.596;2023-06-14T21:46:14;5.20;;;4.70;;
36303;SDS011;22335;49.800;8.596;2023-06-14T21:52:57;5.32;;;4.90;;
36303;SDS011;22335;49.800;8.596;2023-06-14T21:59:42;6.35;;;5.25;;
36303;SDS011;22335;49.800;8.596;2023-06-14T22:06:25;5.50;;;4.97;;
36303;SDS011;22335;49.800;8.596;2023-06-14T22:13:09;5.95;;;5.25;;
36303;SDS011;22335;49.800;8.596;2023-06-14T22:19:54;5.78;;;4.80;;
36303;SDS011;22335;49.800;8.596;2023-06-14T22:26:40;5.37;;;4.97;;
36303;SDS011;22335;49.800;8.596;2023-06-14T22:33:28;5.38;;;4.97;;
36303;SDS011;22335;49.800;8.596;2023-06-14T22:40:13;5.25;;;4.85;;
36303;SDS011;22335;49.800;8.596;2023-06-14T22:46:57;5.30;;;4.90;;
36303;SDS011;22335;49.800;8.596;2023-06-14T22:53:42;7.03;;;5.10;;
36303;SDS011;22335;49.800;8.596;2023-06-14T23:00:27;5.53;;;5.10;;
36303;SDS011;22335;49.800;8.596;2023-06-14T23:07:13;6.15;;;5.55;;
36303;SDS011;22335;49.800;8.596;2023-06-14T23:13:56;5.60;;;5.20;;
36303;SDS011;22335;49.800;8.596;2023-06-14T23:20:43;7.50;;;5.20;;
36303;SDS011;22335;49.800;8.596;2023-06-14T23:27:26;5.10;;;4.70;;
36303;SDS011;22335;49.800;8.596;2023-06-14T23:34:11;5.23;;;4.73;;
36303;SDS011;22335;49.800;8.596;2023-06-14T23:40:56;5.28;;;4.88;;
36303;SDS011;22335;49.800;8.596;2023-06-14T23:47:40;5.33;;;4.93;;
36303;SDS011;22335;49.800;8.596;2023-06-14T23:54:24;5.78;;;5.38;;
